KSFO/SFO METAR and TAF weather

Enter ICAO airport designator
Station Type Date Time Source
KSFO METAR 2022/05/25 00:56 UTC NOAA

KSFO 250056Z 29016KT 10SM FEW200 27/06 A2978 RMK AO2 SLP084 T02720061


Station Type Date Time Source
KSFO Decoded METAR 2022/05/25 00:56 UTC NOAA

SAN FRANCISCO INTERNATIONAL AIRPORT , CA, United States (KSFO) 37-37N 122-22W 26M
May 24, 2022 - 08:56 PM EDT / 2022.05.25 0056 UTC
Wind: from the WNW (290 degrees) at 18 MPH (16 KT):0
Visibility: 10 mile(s):0
Sky conditions: mostly clear
Temperature: 81.0 F (27.2 C)
Dew Point: 43.0 F (6.1 C)
Relative Humidity: 26%
Pressure (altimeter): 29.78 in. Hg (1008 hPa)
ob: KSFO 250056Z 29016KT 10SM FEW200 27/06 A2978 RMK AO2 SLP084 T02720061
cycle: 1

Station Type Date Time Source
KSFO TAF 2022/05/24 21:46 UTC NOAA

TAF
AMD KSFO 242044Z 2421/2524 30013KT P6SM SKC
FM242300 29021KT P6SM FEW200
FM250300 29011KT P6SM SKC
FM250600 VRB04KT P6SM SKC
FM251900 21009KT P6SM SKC
FM252200 23014KT P6SM SKC

Example: see airport list